KAAA

Logan County Airport

Lincoln, Illinois, USA
METAR KAAA 250015Z AUTO 08003KT 10SM CLR 20/11 A2995 RMK AO2 T01990114
Observed Flight Rules
Apr-25 @ 00:15 UTC (13 minutes ago) Visual Flight Rules
Wind Visibility Clouds
80° at 3 knots 10 miles
  • Clear skies
Temperatures Readings
Current 20°C / 68°F
Dewpoint 11°C / 52°F
Humidity 56%
Altimeter 29.95" Hg
Pressure 1014 hPa
Elevation 182
METAR KAAA 250015Z AUTO 08003KT 10SM CLR 20/11 A2995 RMK AO2 T01990114
Observed Flight Rules
Apr-25 @ 00:15 UTC
(13 minutes ago)
VFR
Wind Visibility
80° at 3 knots 10 miles
Clouds
  • Clear skies
Temperature Dewpoint
20°C / 68°F 11°C / 52°F
Humidity Altimeter Pressure
56% 29.95" Hg 1014 hPa